Time;durP1;ratioP1;P1;durP2;ratioP2;P2;SDS_P1;SDS_P2;PMS_P1;PMS_P2;Temp;Humidity;BMP_temperature;BMP_pressure;BME280_temperature;BME280_humidity;BME280_pressure;Samples;Min_cycle;Max_cycle;Signal;HPM_P1;HPM_P2
2023/07/29 00:00:00;;;;;;;;;;;18.40;99.90;;;;;;5113405;27;20394;-64
2023/07/29 00:02:29;;;;;;;;;;;18.40;99.90;;;;;;5133858;27;19927;-64
2023/07/29 00:04:57;;;;;;;;;;;18.40;99.90;;;;;;5131405;27;19927;-63
2023/07/29 00:07:24;;;;;;;;;;;18.40;99.90;;;;;;5115080;27;20175;-63
2023/07/29 00:09:51;;;;;;;;;;;18.40;99.90;;;;;;5113179;27;19924;-64
2023/07/29 00:12:18;;;;;;;;;;;18.30;99.90;;;;;;5133785;27;19932;-63
2023/07/29 00:14:44;;;;;;;;;;;18.30;99.90;;;;;;5133345;27;19927;-64
2023/07/29 00:17:11;;;;;;;;;;;18.30;99.90;;;;;;5114063;27;19930;-64
2023/07/29 00:19:38;;;;;;;;;;;18.40;99.90;;;;;;5113821;28;19931;-62
2023/07/29 00:22:08;;;;;;;;;;;18.30;99.90;;;;;;5112418;28;19934;-63
2023/07/29 00:24:35;;;;;;;;;;;18.30;99.90;;;;;;5132734;28;19931;-64
2023/07/29 00:27:01;;;;;;;;;;;18.30;99.90;;;;;;5113295;28;19924;-64
2023/07/29 00:29:28;;;;;;;;;;;18.30;99.90;;;;;;5114665;28;19932;-64
2023/07/29 00:31:55;;;;;;;;;;;18.30;99.90;;;;;;5112915;28;19935;-64
2023/07/29 00:34:22;;;;;;;;;;;18.30;99.90;;;;;;5133479;28;20875;-64
2023/07/29 00:36:48;;;;;;;;;;;18.30;99.90;;;;;;5112948;28;19924;-64
2023/07/29 00:39:16;;;;;;;;;;;18.30;99.90;;;;;;5132622;28;19977;-63
2023/07/29 00:41:43;;;;;;;;;;;18.30;99.90;;;;;;5133456;28;19923;-62
2023/07/29 00:44:10;;;;;;;;;;;18.30;99.90;;;;;;5113955;28;20036;-64
2023/07/29 00:46:38;;;;;;;;;;;18.30;99.90;;;;;;5112365;28;20305;-64
2023/07/29 00:49:05;;;;;;;;;;;18.30;99.90;;;;;;5114455;28;19928;-64
2023/07/29 00:51:32;;;;;;;;;;;18.30;99.90;;;;;;5112942;28;19924;-64
2023/07/29 00:53:58;;;;;;;;;;;18.30;99.90;;;;;;5113377;28;19969;-64
2023/07/29 00:56:26;;;;;;;;;;;18.30;99.90;;;;;;5112951;28;19928;-64
2023/07/29 00:58:58;;;;;;;;;;;18.30;99.90;;;;;;5132592;28;19923;-64
2023/07/29 01:01:25;;;;;;;;;;;18.30;99.90;;;;;;5114221;28;19931;-63
2023/07/29 01:03:52;;;;;;;;;;;18.20;99.90;;;;;;5112932;28;20368;-62
2023/07/29 01:06:23;;;;;;;;;;;18.20;99.90;;;;;;5132499;28;19939;-63
2023/07/29 01:08:56;;;;;;;;;;;18.20;99.90;;;;;;5113381;28;19928;-62
2023/07/29 01:11:31;;;;;;;;;;;18.20;99.90;;;;;;5113292;28;20448;-63
2023/07/29 01:14:02;;;;;;;;;;;18.10;99.90;;;;;;5132583;28;19923;-64
2023/07/29 01:16:31;;;;;;;;;;;18.00;99.90;;;;;;5112380;28;19924;-63
2023/07/29 01:18:59;;;;;;;;;;;18.00;99.90;;;;;;5114202;28;19984;-63
2023/07/29 01:21:27;;;;;;;;;;;18.00;99.90;;;;;;5132471;28;20297;-63
2023/07/29 01:23:58;;;;;;;;;;;18.00;99.90;;;;;;5112162;28;20041;-64
2023/07/29 01:26:25;;;;;;;;;;;18.00;99.90;;;;;;5113866;27;19977;-64
2023/07/29 01:28:52;;;;;;;;;;;18.00;99.90;;;;;;5115585;27;19924;-63
2023/07/29 01:31:24;;;;;;;;;;;17.90;99.90;;;;;;5117579;27;19927;-63
2023/07/29 01:33:57;;;;;;;;;;;17.90;99.90;;;;;;5117106;27;20326;-65
2023/07/29 01:36:26;;;;;;;;;;;17.80;99.90;;;;;;5136270;27;19930;-63
2023/07/29 01:38:54;;;;;;;;;;;17.80;99.90;;;;;;5118039;27;20324;-64
2023/07/29 01:41:22;;;;;;;;;;;17.70;99.90;;;;;;5135829;27;19928;-64
2023/07/29 01:43:49;;;;;;;;;;;17.70;99.90;;;;;;5134441;27;19927;-64
2023/07/29 01:46:16;;;;;;;;;;;17.60;99.90;;;;;;5136371;27;19972;-64
2023/07/29 01:48:43;;;;;;;;;;;17.50;99.90;;;;;;5115304;27;19924;-64
2023/07/29 01:51:12;;;;;;;;;;;17.50;99.90;;;;;;5136162;27;19930;-64
2023/07/29 01:53:39;;;;;;;;;;;17.50;99.90;;;;;;5116104;27;19930;-63
2023/07/29 01:56:06;;;;;;;;;;;17.40;99.90;;;;;;5135199;27;19975;-63
2023/07/29 01:58:34;;;;;;;;;;;17.30;99.90;;;;;;5136263;27;19930;-63
2023/07/29 02:01:00;;;;;;;;;;;17.30;99.90;;;;;;5136048;27;20398;-62
2023/07/29 02:03:27;;;;;;;;;;;17.30;99.90;;;;;;5115187;27;19935;-63
2023/07/29 02:05:54;;;;;;;;;;;17.20;99.90;;;;;;5115292;27;19924;-62
2023/07/29 02:08:21;;;;;;;;;;;17.20;99.90;;;;;;5136056;27;19923;-65
2023/07/29 02:10:48;;;;;;;;;;;17.10;99.90;;;;;;5116522;27;19927;-64
2023/07/29 02:13:15;;;;;;;;;;;17.10;99.90;;;;;;5116189;27;19978;-63
2023/07/29 02:15:44;;;;;;;;;;;17.10;99.90;;;;;;5135958;27;20391;-63
2023/07/29 02:18:10;;;;;;;;;;;17.10;99.90;;;;;;5115774;27;19924;-64
2023/07/29 02:20:37;;;;;;;;;;;17.10;99.90;;;;;;5115079;27;19924;-64
2023/07/29 02:23:04;;;;;;;;;;;17.10;99.90;;;;;;5135295;27;19930;-63
2023/07/29 02:25:31;;;;;;;;;;;17.00;99.90;;;;;;5135093;27;19924;-63
2023/07/29 02:27:58;;;;;;;;;;;17.00;99.90;;;;;;5135550;27;19923;-63
2023/07/29 02:30:24;;;;;;;;;;;16.90;99.90;;;;;;5114245;27;19940;-63
2023/07/29 02:32:52;;;;;;;;;;;16.90;99.90;;;;;;5115905;27;19924;-63
2023/07/29 02:35:19;;;;;;;;;;;16.90;99.90;;;;;;5114879;27;20334;-63
2023/07/29 02:37:46;;;;;;;;;;;16.90;99.90;;;;;;5114875;27;19928;-63
2023/07/29 02:40:13;;;;;;;;;;;16.90;99.90;;;;;;5114762;27;19946;-62
2023/07/29 02:42:39;;;;;;;;;;;16.80;99.90;;;;;;5115979;27;19931;-62
2023/07/29 02:45:09;;;;;;;;;;;16.80;99.90;;;;;;5134750;27;19927;-62
2023/07/29 02:47:36;;;;;;;;;;;16.80;99.90;;;;;;5134897;27;21005;-63
2023/07/29 02:50:04;;;;;;;;;;;16.70;99.90;;;;;;5115139;27;19969;-63
2023/07/29 02:52:31;;;;;;;;;;;16.70;99.90;;;;;;5134091;27;20317;-63
2023/07/29 02:54:58;;;;;;;;;;;16.60;99.90;;;;;;5135256;27;19931;-63
2023/07/29 02:57:24;;;;;;;;;;;16.60;99.90;;;;;;5134780;27;19976;-62
2023/07/29 02:59:51;;;;;;;;;;;16.60;99.90;;;;;;5114236;27;19982;-62
2023/07/29 03:02:18;;;;;;;;;;;16.50;99.90;;;;;;5134928;27;19925;-63
2023/07/29 03:04:44;;;;;;;;;;;16.50;99.90;;;;;;5135143;27;19931;-63
2023/07/29 03:07:13;;;;;;;;;;;16.50;99.90;;;;;;5115140;27;19988;-64
2023/07/29 03:09:41;;;;;;;;;;;16.50;99.90;;;;;;5115134;27;19924;-64
2023/07/29 03:12:08;;;;;;;;;;;16.50;99.90;;;;;;5134830;27;19927;-64
2023/07/29 03:14:35;;;;;;;;;;;16.40;99.90;;;;;;5114680;27;19924;-64
2023/07/29 03:17:03;;;;;;;;;;;16.40;99.90;;;;;;5113787;27;19931;-63
2023/07/29 03:19:30;;;;;;;;;;;16.40;99.90;;;;;;5133573;27;20375;-62
2023/07/29 03:21:57;;;;;;;;;;;16.40;99.90;;;;;;5134480;27;19928;-62
2023/07/29 03:24:25;;;;;;;;;;;16.30;99.90;;;;;;5114973;27;19924;-63
2023/07/29 03:26:52;;;;;;;;;;;16.30;99.90;;;;;;5133850;27;19927;-63
2023/07/29 03:29:18;;;;;;;;;;;16.30;99.90;;;;;;5115543;27;19931;-63
2023/07/29 03:31:45;;;;;;;;;;;16.30;99.90;;;;;;5134148;27;19931;-63
2023/07/29 03:34:12;;;;;;;;;;;16.30;99.90;;;;;;5133286;27;19923;-63
2023/07/29 03:36:39;;;;;;;;;;;16.30;99.90;;;;;;5134069;27;20365;-63
2023/07/29 03:39:05;;;;;;;;;;;16.20;99.90;;;;;;5133959;27;19935;-62
2023/07/29 03:41:34;;;;;;;;;;;16.20;99.90;;;;;;5133410;27;20340;-63
2023/07/29 03:44:00;;;;;;;;;;;16.20;99.90;;;;;;5133811;27;19936;-64
2023/07/29 03:46:27;;;;;;;;;;;16.20;99.90;;;;;;5133738;27;19927;-64
2023/07/29 03:48:54;;;;;;;;;;;16.10;99.90;;;;;;5113823;27;20263;-62
2023/07/29 03:51:21;;;;;;;;;;;16.10;99.90;;;;;;5133598;27;19924;-63
2023/07/29 03:53:48;;;;;;;;;;;16.10;99.90;;;;;;5133481;27;20296;-63
2023/07/29 03:56:15;;;;;;;;;;;16.10;99.90;;;;;;5132973;27;20019;-63
2023/07/29 03:58:43;;;;;;;;;;;16.10;99.90;;;;;;5133355;27;20275;-63
2023/07/29 04:01:10;;;;;;;;;;;16.10;99.90;;;;;;5114192;28;19924;-63
2023/07/29 04:03:37;;;;;;;;;;;16.00;99.90;;;;;;5132990;27;19923;-63
2023/07/29 04:06:03;;;;;;;;;;;16.10;99.90;;;;;;5114076;27;20329;-64
2023/07/29 04:08:30;;;;;;;;;;;16.00;99.90;;;;;;5114911;27;19973;-63
2023/07/29 04:10:57;;;;;;;;;;;16.00;99.90;;;;;;5132957;27;20324;-64
2023/07/29 04:13:23;;;;;;;;;;;16.00;99.90;;;;;;5133428;27;19927;-64
2023/07/29 04:15:52;;;;;;;;;;;16.00;99.90;;;;;;5132921;27;20506;-63
2023/07/29 04:18:18;;;;;;;;;;;16.00;99.90;;;;;;5130922;27;19931;-63
2023/07/29 04:20:45;;;;;;;;;;;16.00;99.90;;;;;;5133686;27;19923;-64
2023/07/29 04:23:12;;;;;;;;;;;16.10;99.90;;;;;;5132892;28;19923;-66
2023/07/29 04:25:38;;;;;;;;;;;16.10;99.90;;;;;;5133219;28;20379;-67
2023/07/29 04:28:05;;;;;;;;;;;16.10;99.90;;;;;;5113283;28;19985;-66
2023/07/29 04:30:32;;;;;;;;;;;16.10;99.90;;;;;;5114002;28;19949;-67
2023/07/29 04:33:00;;;;;;;;;;;16.20;99.90;;;;;;5133473;28;19924;-66
2023/07/29 04:35:27;;;;;;;;;;;16.20;99.90;;;;;;5114690;28;19942;-63
2023/07/29 04:37:53;;;;;;;;;;;16.20;99.90;;;;;;5112358;28;19939;-62
2023/07/29 04:40:20;;;;;;;;;;;16.30;99.90;;;;;;5114385;28;19924;-62
2023/07/29 04:42:47;;;;;;;;;;;16.30;99.90;;;;;;5112904;28;19932;-63
2023/07/29 04:45:13;;;;;;;;;;;16.30;99.90;;;;;;5125030;27;19923;-64
2023/07/29 04:47:40;;;;;;;;;;;16.40;99.90;;;;;;5103902;28;19924;-63
2023/07/29 04:50:09;;;;;;;;;;;16.60;99.90;;;;;;5108745;28;19934;-62
2023/07/29 04:52:36;;;;;;;;;;;16.70;99.90;;;;;;5127663;28;19924;-64
2023/07/29 04:55:03;;;;;;;;;;;16.80;99.90;;;;;;5105873;28;19931;-64
2023/07/29 04:57:29;;;;;;;;;;;17.00;99.90;;;;;;5110083;28;19988;-64
2023/07/29 04:59:56;;;;;;;;;;;17.00;99.90;;;;;;5106193;28;19932;-64
2023/07/29 05:02:23;;;;;;;;;;;17.10;99.90;;;;;;5114021;27;19973;-63
2023/07/29 05:04:49;;;;;;;;;;;17.20;99.90;;;;;;5134254;27;19924;-62
2023/07/29 05:07:17;;;;;;;;;;;17.10;99.90;;;;;;5114313;27;19952;-62
2023/07/29 05:09:44;;;;;;;;;;;17.20;99.90;;;;;;5134007;27;19966;-64
2023/07/29 05:12:11;;;;;;;;;;;17.30;99.90;;;;;;5116748;27;20016;-63
2023/07/29 05:14:38;;;;;;;;;;;17.30;99.90;;;;;;5130358;27;20236;-63
2023/07/29 05:17:05;;;;;;;;;;;17.30;99.90;;;;;;5115776;27;19923;-63
2023/07/29 05:19:31;;;;;;;;;;;17.30;99.90;;;;;;5134307;27;19927;-63
2023/07/29 05:21:59;;;;;;;;;;;17.40;99.90;;;;;;5114625;27;19931;-64
2023/07/29 05:24:27;;;;;;;;;;;17.40;99.90;;;;;;5135773;27;19971;-64
2023/07/29 05:26:53;;;;;;;;;;;17.50;99.90;;;;;;5114086;27;20280;-64
2023/07/29 05:29:20;;;;;;;;;;;17.50;99.90;;;;;;5113846;27;19931;-64
2023/07/29 05:31:47;;;;;;;;;;;17.50;99.90;;;;;;5113822;27;20307;-64
2023/07/29 05:34:14;;;;;;;;;;;17.50;99.90;;;;;;5113806;27;20225;-63
2023/07/29 05:36:41;;;;;;;;;;;17.60;99.90;;;;;;5133148;27;20386;-63
2023/07/29 05:39:08;;;;;;;;;;;17.60;99.90;;;;;;5135510;27;20331;-64
2023/07/29 05:41:36;;;;;;;;;;;17.70;99.90;;;;;;5133417;27;19923;-63
2023/07/29 05:44:02;;;;;;;;;;;17.80;99.90;;;;;;5129139;27;20427;-64
2023/07/29 05:46:29;;;;;;;;;;;17.70;99.90;;;;;;5109889;27;19927;-64
2023/07/29 05:48:56;;;;;;;;;;;17.80;99.90;;;;;;5132607;27;19954;-64
2023/07/29 05:51:22;;;;;;;;;;;17.80;99.90;;;;;;5110697;27;19992;-63
2023/07/29 05:53:49;;;;;;;;;;;17.80;99.90;;;;;;5133782;27;20287;-63
2023/07/29 05:56:16;;;;;;;;;;;17.80;99.90;;;;;;5133035;27;19930;-62
2023/07/29 05:58:44;;;;;;;;;;;17.80;99.90;;;;;;5135655;27;19945;-64
2023/07/29 06:01:10;;;;;;;;;;;17.80;99.90;;;;;;5113802;27;19931;-63
2023/07/29 06:03:37;;;;;;;;;;;17.90;99.90;;;;;;5113223;27;19934;-64
2023/07/29 06:06:04;;;;;;;;;;;18.00;99.90;;;;;;5134136;27;19931;-63
2023/07/29 06:08:34;;;;;;;;;;;18.00;99.90;;;;;;5132374;27;19923;-64
2023/07/29 06:11:00;;;;;;;;;;;18.00;99.90;;;;;;5134710;27;19927;-64
2023/07/29 06:13:27;;;;;;;;;;;18.10;99.90;;;;;;5114072;27;20296;-63
2023/07/29 06:15:55;;;;;;;;;;;18.10;99.90;;;;;;5112303;27;19924;-64
2023/07/29 06:18:22;;;;;;;;;;;18.20;99.90;;;;;;5129303;27;19923;-64
2023/07/29 06:20:48;;;;;;;;;;;18.20;99.90;;;;;;5116099;27;19938;-63
2023/07/29 06:23:16;;;;;;;;;;;18.20;99.90;;;;;;5132226;27;19934;-63
2023/07/29 06:25:43;;;;;;;;;;;18.30;99.90;;;;;;5114833;27;19927;-63
2023/07/29 06:28:09;;;;;;;;;;;18.60;99.90;;;;;;5114223;27;19938;-63
2023/07/29 06:30:36;;;;;;;;;;;18.90;99.90;;;;;;5115675;27;19946;-63
2023/07/29 06:33:05;;;;;;;;;;;19.10;99.90;;;;;;5133442;27;19923;-64
2023/07/29 06:35:31;;;;;;;;;;;19.40;99.90;;;;;;5134994;27;19934;-63
2023/07/29 06:37:58;;;;;;;;;;;19.60;99.90;;;;;;5132757;27;19923;-64
2023/07/29 06:40:25;;;;;;;;;;;19.70;99.90;;;;;;5116048;27;19930;-63
2023/07/29 06:42:52;;;;;;;;;;;19.80;99.90;;;;;;5113778;27;19923;-64
2023/07/29 06:45:19;;;;;;;;;;;19.80;99.90;;;;;;5114930;27;20375;-64
2023/07/29 06:47:46;;;;;;;;;;;19.80;99.90;;;;;;5130739;27;19973;-64
2023/07/29 06:50:14;;;;;;;;;;;19.80;99.90;;;;;;5132994;27;19931;-64
2023/07/29 06:52:40;;;;;;;;;;;19.80;99.90;;;;;;5132350;27;19928;-64
2023/07/29 06:55:08;;;;;;;;;;;20.00;99.90;;;;;;5108312;27;19923;-63
2023/07/29 06:57:34;;;;;;;;;;;20.00;99.90;;;;;;5129471;27;19923;-64
2023/07/29 07:00:01;;;;;;;;;;;20.10;99.90;;;;;;5110726;27;19927;-63
2023/07/29 07:02:28;;;;;;;;;;;20.10;99.90;;;;;;5111528;27;19932;-63
2023/07/29 07:04:54;;;;;;;;;;;20.20;99.90;;;;;;5113205;27;19927;-63
2023/07/29 07:07:23;;;;;;;;;;;20.20;99.90;;;;;;5129919;27;19923;-64
2023/07/29 07:09:49;;;;;;;;;;;20.40;99.90;;;;;;5128773;27;19972;-64
2023/07/29 07:12:16;;;;;;;;;;;20.60;99.90;;;;;;5111595;27;20389;-63
2023/07/29 07:14:43;;;;;;;;;;;20.70;99.90;;;;;;5128365;27;19934;-63
2023/07/29 07:17:09;;;;;;;;;;;20.80;99.90;;;;;;5131328;27;20390;-63
2023/07/29 07:19:37;;;;;;;;;;;20.50;99.90;;;;;;5131435;27;20499;-64
2023/07/29 07:22:03;;;;;;;;;;;20.50;99.90;;;;;;5113380;27;19959;-64
2023/07/29 07:24:32;;;;;;;;;;;20.40;99.90;;;;;;5130349;27;19924;-63
2023/07/29 07:26:58;;;;;;;;;;;20.40;99.90;;;;;;5132810;27;20426;-64
2023/07/29 07:29:25;;;;;;;;;;;20.50;99.90;;;;;;5129128;27;19939;-64
2023/07/29 07:31:53;;;;;;;;;;;20.60;99.90;;;;;;5109767;27;19924;-63
2023/07/29 07:34:19;;;;;;;;;;;20.60;99.90;;;;;;5129396;27;19923;-64
2023/07/29 07:36:46;;;;;;;;;;;20.60;99.90;;;;;;5131383;27;19927;-65
2023/07/29 07:39:13;;;;;;;;;;;20.50;99.90;;;;;;5108411;27;19924;-64
2023/07/29 07:41:41;;;;;;;;;;;20.50;99.90;;;;;;5130170;27;19931;-63
2023/07/29 07:44:08;;;;;;;;;;;20.30;99.90;;;;;;5129522;27;19927;-64
2023/07/29 07:46:35;;;;;;;;;;;20.60;99.90;;;;;;5133440;27;20181;-63
2023/07/29 07:49:02;;;;;;;;;;;20.90;99.90;;;;;;5111309;27;19923;-64
2023/07/29 07:51:28;;;;;;;;;;;21.00;99.90;;;;;;5112838;28;19939;-62
2023/07/29 07:53:55;;;;;;;;;;;21.10;99.90;;;;;;5133374;27;19928;-63
2023/07/29 07:56:22;;;;;;;;;;;21.10;99.90;;;;;;5133806;27;20348;-63
2023/07/29 07:58:50;;;;;;;;;;;21.40;99.90;;;;;;5114778;27;20847;-63
2023/07/29 08:01:16;;;;;;;;;;;21.60;99.90;;;;;;5133345;27;19934;-63
2023/07/29 08:03:43;;;;;;;;;;;21.80;99.90;;;;;;5115361;27;19930;-63
2023/07/29 08:06:10;;;;;;;;;;;21.90;99.90;;;;;;5133686;27;19923;-64
2023/07/29 08:08:37;;;;;;;;;;;22.00;99.90;;;;;;5133104;27;19976;-64
2023/07/29 08:11:03;;;;;;;;;;;21.90;99.90;;;;;;5114057;27;19931;-64
2023/07/29 08:13:30;;;;;;;;;;;22.00;99.90;;;;;;5113320;27;19927;-63
2023/07/29 08:15:58;;;;;;;;;;;22.30;99.90;;;;;;5133023;27;19923;-63
2023/07/29 08:18:25;;;;;;;;;;;22.50;99.90;;;;;;5113141;27;19972;-63
2023/07/29 08:20:57;;;;;;;;;;;22.80;99.90;;;;;;5114727;28;20294;-64
2023/07/29 08:23:25;;;;;;;;;;;23.20;99.90;;;;;;5113448;28;19923;-63
2023/07/29 08:25:53;;;;;;;;;;;23.50;99.90;;;;;;5113074;28;20356;-63
2023/07/29 08:28:19;;;;;;;;;;;23.60;99.90;;;;;;5114521;28;19972;-63
2023/07/29 08:30:46;;;;;;;;;;;23.60;99.90;;;;;;5132149;28;19934;-64
2023/07/29 08:33:14;;;;;;;;;;;23.50;99.90;;;;;;5133421;28;19923;-63
2023/07/29 08:35:41;;;;;;;;;;;23.10;99.90;;;;;;5134424;27;20303;-63
2023/07/29 08:38:08;;;;;;;;;;;22.80;99.90;;;;;;5133919;27;19934;-63
2023/07/29 08:40:35;;;;;;;;;;;22.60;99.90;;;;;;5105668;27;19924;-63
2023/07/29 08:43:04;;;;;;;;;;;22.50;99.90;;;;;;5134143;27;19930;-63
2023/07/29 08:45:31;;;;;;;;;;;22.50;99.90;;;;;;5136082;27;19927;-64
2023/07/29 08:47:59;;;;;;;;;;;22.40;99.90;;;;;;5134129;27;20443;-64
2023/07/29 08:50:27;;;;;;;;;;;22.30;99.90;;;;;;5116192;27;19923;-64
2023/07/29 08:52:54;;;;;;;;;;;22.30;99.90;;;;;;5109159;27;20647;-63
2023/07/29 08:55:21;;;;;;;;;;;22.70;99.90;;;;;;5136331;27;19927;-64
2023/07/29 08:57:48;;;;;;;;;;;23.60;99.90;;;;;;5113736;27;20390;-64
2023/07/29 09:00:15;;;;;;;;;;;24.20;99.90;;;;;;5135110;27;20447;-64
2023/07/29 09:02:42;;;;;;;;;;;24.80;99.90;;;;;;5134829;27;19930;-64
2023/07/29 09:05:09;;;;;;;;;;;25.20;99.90;;;;;;5130155;27;19924;-64
2023/07/29 09:07:38;;;;;;;;;;;25.00;99.90;;;;;;5112348;27;19927;-64
2023/07/29 09:10:05;;;;;;;;;;;24.40;99.90;;;;;;5117850;27;19930;-64
2023/07/29 09:12:31;;;;;;;;;;;23.80;99.90;;;;;;5111081;27;19935;-64
2023/07/29 09:14:58;;;;;;;;;;;23.60;99.90;;;;;;5118008;27;19923;-64
2023/07/29 09:17:25;;;;;;;;;;;23.70;99.90;;;;;;5134632;27;20379;-64
2023/07/29 09:19:52;;;;;;;;;;;23.70;99.90;;;;;;5134329;27;20310;-64
2023/07/29 09:22:19;;;;;;;;;;;23.70;99.90;;;;;;5135051;27;20772;-63
2023/07/29 09:24:48;;;;;;;;;;;24.30;99.90;;;;;;5113839;27;19928;-63
2023/07/29 09:27:24;;;;;;;;;;;24.60;99.90;;;;;;5135372;27;19930;-64
2023/07/29 09:29:51;;;;;;;;;;;25.50;99.90;;;;;;5113535;27;19936;-64
2023/07/29 09:32:18;;;;;;;;;;;26.30;99.90;;;;;;5116868;27;19923;-64
2023/07/29 09:34:45;;;;;;;;;;;26.00;99.90;;;;;;5133825;27;19923;-65
2023/07/29 09:37:16;;;;;;;;;;;25.50;99.90;;;;;;5126188;27;19946;-64
2023/07/29 09:39:44;;;;;;;;;;;25.10;99.90;;;;;;5133233;27;20303;-64
2023/07/29 09:42:16;;;;;;;;;;;24.50;99.90;;;;;;5113630;27;19934;-64
2023/07/29 09:44:43;;;;;;;;;;;25.10;99.90;;;;;;5133482;27;20386;-65
2023/07/29 09:47:10;;;;;;;;;;;25.20;99.90;;;;;;5133287;27;19972;-64
2023/07/29 09:49:37;;;;;;;;;;;25.50;99.90;;;;;;5111495;27;20336;-64
2023/07/29 09:52:05;;;;;;;;;;;25.80;99.90;;;;;;5116502;27;20014;-64
2023/07/29 09:54:31;;;;;;;;;;;25.90;99.90;;;;;;5132340;27;20017;-65
2023/07/29 09:56:58;;;;;;;;;;;25.70;99.90;;;;;;5114936;27;19927;-65
2023/07/29 09:59:26;;;;;;;;;;;25.60;99.90;;;;;;5129118;27;19923;-64
2023/07/29 10:01:53;;;;;;;;;;;25.40;99.90;;;;;;5130386;27;19976;-64
2023/07/29 10:04:21;;;;;;;;;;;25.40;99.90;;;;;;5132725;27;19931;-65
2023/07/29 10:06:47;;;;;;;;;;;26.30;99.90;;;;;;5112756;27;19927;-64
2023/07/29 10:09:14;;;;;;;;;;;27.00;99.90;;;;;;5112840;27;20044;-64
2023/07/29 10:11:42;;;;;;;;;;;27.50;99.90;;;;;;5131044;27;19924;-65
2023/07/29 10:14:09;;;;;;;;;;;27.00;99.90;;;;;;5113937;27;19935;-62
2023/07/29 10:16:38;;;;;;;;;;;26.50;99.90;;;;;;5110344;27;19923;-62
2023/07/29 10:19:05;;;;;;;;;;;26.10;99.90;;;;;;5114236;27;19940;-63
2023/07/29 10:21:32;;;;;;;;;;;26.00;99.90;;;;;;5131112;27;20023;-62
2023/07/29 10:24:00;;;;;;;;;;;25.90;99.90;;;;;;5114668;27;19975;-63
2023/07/29 10:26:29;;;;;;;;;;;26.00;99.90;;;;;;5112805;27;20040;-62
2023/07/29 10:28:59;;;;;;;;;;;25.80;99.90;;;;;;5115137;27;19923;-61
2023/07/29 10:31:26;;;;;;;;;;;25.70;99.90;;;;;;5112186;27;20014;-61
2023/07/29 10:33:54;;;;;;;;;;;26.00;99.90;;;;;;5115899;27;20035;-61
2023/07/29 10:36:21;;;;;;;;;;;26.30;99.90;;;;;;5130501;27;20016;-61
2023/07/29 10:38:48;;;;;;;;;;;26.80;99.90;;;;;;5133160;27;19930;-61
2023/07/29 10:41:15;;;;;;;;;;;27.30;99.90;;;;;;5112454;27;19923;-62
2023/07/29 10:43:41;;;;;;;;;;;27.60;99.90;;;;;;5132599;27;19983;-62
2023/07/29 10:46:18;;;;;;;;;;;27.70;99.90;;;;;;5107695;27;20291;-61
2023/07/29 10:48:45;;;;;;;;;;;27.70;99.90;;;;;;5113739;27;19924;-61
2023/07/29 10:51:29;;;;;;;;;;;27.70;99.90;;;;;;5133642;27;20283;-61
2023/07/29 10:53:56;;;;;;;;;;;27.10;99.60;;;;;;5131628;27;20282;-61
2023/07/29 10:56:27;;;;;;;;;;;26.60;99.90;;;;;;5132958;27;19924;-62
2023/07/29 10:58:56;;;;;;;;;;;26.00;99.90;;;;;;5109983;28;19971;-62
2023/07/29 11:01:27;;;;;;;;;;;25.50;99.90;;;;;;5133353;27;19931;-62
2023/07/29 11:04:12;;;;;;;;;;;25.20;99.90;;;;;;5131565;27;19931;-62
2023/07/29 11:06:54;;;;;;;;;;;24.90;99.90;;;;;;5113016;27;19927;-62
2023/07/29 11:09:42;;;;;;;;;;;24.70;99.90;;;;;;5108090;27;19966;-63
2023/07/29 11:12:23;;;;;;;;;;;24.30;99.90;;;;;;5111092;27;19928;-62
2023/07/29 11:14:50;;;;;;;;;;;23.50;99.90;;;;;;5111962;27;20374;-61
2023/07/29 11:17:17;;;;;;;;;;;22.50;99.90;;;;;;5131429;27;20398;-62
2023/07/29 11:19:44;;;;;;;;;;;21.80;99.90;;;;;;5110192;27;19972;-62
2023/07/29 11:22:11;;;;;;;;;;;21.40;99.90;;;;;;5131548;27;19924;-61
2023/07/29 11:24:37;;;;;;;;;;;21.40;99.90;;;;;;5131634;27;20397;-62
2023/07/29 11:27:06;;;;;;;;;;;21.50;99.90;;;;;;5109255;27;20925;-62
2023/07/29 11:29:33;;;;;;;;;;;21.70;99.90;;;;;;5115093;27;19934;-62
2023/07/29 11:31:59;;;;;;;;;;;22.00;99.90;;;;;;5108043;27;20012;-62
2023/07/29 11:34:32;;;;;;;;;;;22.40;99.90;;;;;;5132999;27;20382;-62
2023/07/29 11:36:58;;;;;;;;;;;22.80;99.90;;;;;;5125757;27;20007;-62
2023/07/29 11:39:25;;;;;;;;;;;23.40;99.90;;;;;;5131533;27;20421;-62
2023/07/29 11:41:52;;;;;;;;;;;23.60;99.90;;;;;;5130729;27;20018;-62
2023/07/29 11:44:20;;;;;;;;;;;24.00;99.90;;;;;;5129608;27;19930;-62
2023/07/29 11:46:48;;;;;;;;;;;23.80;99.90;;;;;;5109751;27;19931;-62
2023/07/29 11:49:15;;;;;;;;;;;23.90;99.90;;;;;;5130516;27;20009;-62
2023/07/29 11:51:42;;;;;;;;;;;23.60;99.90;;;;;;5112205;27;19946;-61
2023/07/29 11:54:09;;;;;;;;;;;23.40;99.90;;;;;;5130190;27;19974;-62
2023/07/29 11:56:36;;;;;;;;;;;23.00;99.90;;;;;;5111537;27;19923;-62
2023/07/29 11:59:03;;;;;;;;;;;22.80;99.90;;;;;;5131581;27;19934;-62
2023/07/29 12:01:31;;;;;;;;;;;22.80;99.90;;;;;;5132430;27;20299;-62
2023/07/29 12:03:58;;;;;;;;;;;22.90;99.90;;;;;;5131170;27;19949;-62
2023/07/29 12:06:25;;;;;;;;;;;23.00;99.90;;;;;;5107665;27;20432;-61
2023/07/29 12:08:52;;;;;;;;;;;23.00;99.90;;;;;;5129696;27;19972;-61
2023/07/29 12:11:19;;;;;;;;;;;22.90;99.90;;;;;;5113088;28;19923;-60
2023/07/29 12:13:45;;;;;;;;;;;22.90;99.90;;;;;;5129700;27;19976;-60
2023/07/29 12:16:17;;;;;;;;;;;23.20;99.90;;;;;;5132463;27;19927;-62
2023/07/29 12:18:45;;;;;;;;;;;23.70;99.90;;;;;;5131111;27;19924;-62
2023/07/29 12:21:15;;;;;;;;;;;24.10;99.90;;;;;;5129854;27;21377;-62
2023/07/29 12:23:41;;;;;;;;;;;24.80;99.90;;;;;;5130728;27;20316;-62
2023/07/29 12:26:08;;;;;;;;;;;24.70;99.90;;;;;;5129849;28;20340;-62
2023/07/29 12:28:35;;;;;;;;;;;24.90;99.90;;;;;;5130287;28;19931;-61
2023/07/29 12:31:01;;;;;;;;;;;24.90;99.90;;;;;;5132557;28;19927;-61
2023/07/29 12:33:32;;;;;;;;;;;24.80;99.90;;;;;;5109988;28;19970;-61
2023/07/29 12:36:00;;;;;;;;;;;24.60;99.90;;;;;;5111948;28;20019;-62
2023/07/29 12:38:27;;;;;;;;;;;24.40;99.90;;;;;;5109577;28;19935;-61
2023/07/29 12:40:54;;;;;;;;;;;24.20;99.90;;;;;;5130859;28;19931;-62
2023/07/29 12:43:20;;;;;;;;;;;24.10;99.90;;;;;;5110703;28;19931;-61
2023/07/29 12:45:47;;;;;;;;;;;24.00;99.90;;;;;;5110722;28;19927;-61
2023/07/29 12:48:15;;;;;;;;;;;24.10;99.90;;;;;;5127600;28;19952;-62
2023/07/29 12:50:41;;;;;;;;;;;24.40;99.90;;;;;;5109024;28;19924;-61
2023/07/29 12:53:10;;;;;;;;;;;24.40;99.90;;;;;;5131743;28;19923;-62
2023/07/29 12:55:37;;;;;;;;;;;23.90;99.90;;;;;;5109844;28;20380;-62
2023/07/29 12:58:04;;;;;;;;;;;23.60;99.90;;;;;;5112649;28;19927;-62
2023/07/29 13:00:31;;;;;;;;;;;23.70;99.90;;;;;;5128251;28;20287;-60
2023/07/29 13:02:57;;;;;;;;;;;23.60;99.90;;;;;;5132540;28;19930;-62
2023/07/29 13:05:24;;;;;;;;;;;23.50;99.90;;;;;;5108118;28;19923;-62
2023/07/29 13:07:51;;;;;;;;;;;23.60;99.90;;;;;;5113679;28;19939;-61
2023/07/29 13:10:19;;;;;;;;;;;23.60;99.90;;;;;;5110081;28;19923;-61
2023/07/29 13:12:46;;;;;;;;;;;23.70;99.90;;;;;;5131970;28;19931;-62
2023/07/29 13:15:12;;;;;;;;;;;23.30;99.90;;;;;;5108616;28;19970;-62
2023/07/29 13:17:39;;;;;;;;;;;23.00;99.90;;;;;;5112674;28;19924;-62
2023/07/29 13:20:07;;;;;;;;;;;22.60;99.90;;;;;;5106686;28;19927;-62
2023/07/29 13:22:33;;;;;;;;;;;22.50;99.90;;;;;;5131566;27;19923;-62
2023/07/29 13:25:00;;;;;;;;;;;22.50;99.90;;;;;;5134521;27;20721;-61
2023/07/29 13:27:28;;;;;;;;;;;23.00;99.90;;;;;;5131880;27;19927;-61
2023/07/29 13:29:55;;;;;;;;;;;24.00;99.90;;;;;;5135233;27;19976;-61
2023/07/29 13:32:22;;;;;;;;;;;24.40;99.90;;;;;;5133541;27;19932;-61
2023/07/29 13:34:48;;;;;;;;;;;24.40;99.90;;;;;;5133571;27;19930;-62
2023/07/29 13:37:15;;;;;;;;;;;24.40;99.90;;;;;;5133540;27;20286;-61
2023/07/29 13:39:42;;;;;;;;;;;23.80;99.90;;;;;;5113790;27;19931;-61
2023/07/29 13:42:08;;;;;;;;;;;23.50;99.90;;;;;;5133028;27;19923;-61
2023/07/29 13:44:36;;;;;;;;;;;23.20;99.90;;;;;;5134332;27;20379;-61
2023/07/29 13:47:03;;;;;;;;;;;23.00;99.90;;;;;;5111318;27;19972;-61
2023/07/29 13:49:30;;;;;;;;;;;22.60;99.90;;;;;;5113547;27;19924;-60
2023/07/29 13:51:57;;;;;;;;;;;22.70;99.90;;;;;;5110193;27;19924;-62
2023/07/29 13:54:23;;;;;;;;;;;22.70;99.90;;;;;;5116262;27;19927;-61
2023/07/29 13:56:50;;;;;;;;;;;22.60;99.90;;;;;;5111491;27;20303;-61
2023/07/29 13:59:17;;;;;;;;;;;22.70;99.90;;;;;;5133147;27;20383;-62
2023/07/29 14:01:45;;;;;;;;;;;23.10;99.90;;;;;;5130600;27;19928;-61
2023/07/29 14:04:12;;;;;;;;;;;23.50;99.90;;;;;;5135073;27;19930;-61
2023/07/29 14:06:38;;;;;;;;;;;24.10;99.90;;;;;;5112110;27;19923;-61
2023/07/29 14:09:05;;;;;;;;;;;24.60;99.90;;;;;;5112853;27;19924;-61
2023/07/29 14:11:32;;;;;;;;;;;24.70;99.90;;;;;;5110303;27;19923;-61
2023/07/29 14:13:58;;;;;;;;;;;24.80;99.90;;;;;;5112290;27;19927;-61
2023/07/29 14:16:25;;;;;;;;;;;24.70;99.90;;;;;;5134859;27;19930;-61